Time;durP1;ratioP1;P1;durP2;ratioP2;P2;SDS_P1;SDS_P2;PMS_P1;PMS_P2;Temp;Humidity;BMP_temperature;BMP_pressure;BME280_temperature;BME280_humidity;BME280_pressure;Samples;Min_cycle;Max_cycle;Signal;HPM_P1;HPM_P2
2021/07/11 00:01:52;;;;;;;22.65;18.35;;;;;;;25.50;61.42;100009.34;6182129;23;20041;-66
2021/07/11 00:04:17;;;;;;;20.13;17.88;;;;;;;25.47;61.27;100007.03;6182147;23;20420;-67
2021/07/11 00:06:43;;;;;;;18.77;16.67;;;;;;;25.46;61.22;100010.81;6182500;23;20075;-68
2021/07/11 00:09:08;;;;;;;24.38;18.48;;;;;;;25.42;61.20;100009.56;6182248;23;20005;-67
2021/07/11 00:11:34;;;;;;;19.90;16.98;;;;;;;25.35;61.59;100007.72;6155646;23;20092;-63
2021/07/11 00:14:01;;;;;;;18.77;17.08;;;;;;;25.26;60.39;100000.78;6181490;23;20451;-65
2021/07/11 00:16:28;;;;;;;17.88;16.08;;;;;;;25.27;60.95;100002.44;6182067;23;20059;-69
2021/07/11 00:18:54;;;;;;;18.38;16.58;;;;;;;25.24;61.19;100008.38;6182711;23;20036;-67
2021/07/11 00:21:20;;;;;;;18.85;16.73;;;;;;;25.14;61.72;99992.38;6182737;23;20023;-69
2021/07/11 00:23:45;;;;;;;18.25;16.42;;;;;;;25.15;61.81;99998.72;6181747;23;20016;-65
2021/07/11 00:26:11;;;;;;;18.80;16.85;;;;;;;25.05;61.76;99996.44;6182075;23;20009;-66
2021/07/11 00:28:36;;;;;;;18.45;16.55;;;;;;;25.08;61.60;100009.69;6183589;23;20025;-67
2021/07/11 00:31:02;;;;;;;19.67;15.57;;;;;;;25.06;61.49;100003.59;6155478;23;20001;-61
2021/07/11 00:33:29;;;;;;;19.10;16.98;;;;;;;25.06;61.34;100006.31;6181893;23;20016;-65
2021/07/11 00:35:55;;;;;;;18.50;16.80;;;;;;;25.08;61.05;100006.94;6155821;23;20028;-66
2021/07/11 00:38:22;;;;;;;18.75;16.95;;;;;;;25.10;60.75;100013.06;6181289;23;20005;-66
2021/07/11 00:40:48;;;;;;;19.17;17.10;;;;;;;25.09;61.15;100019.59;6182020;23;20009;-67
2021/07/11 00:43:13;;;;;;;18.35;16.55;;;;;;;25.04;61.35;100014.75;6181949;23;20008;-65
2021/07/11 00:45:39;;;;;;;18.50;16.60;;;;;;;25.04;61.27;100012.00;6154571;23;20439;-66
2021/07/11 00:48:05;;;;;;;20.05;16.80;;;;;;;25.02;61.01;100010.56;6155738;23;20012;-66
2021/07/11 00:50:30;;;;;;;18.85;15.77;;;;;;;25.00;59.70;100018.97;6181831;23;20293;-66
2021/07/11 00:52:56;;;;;;;18.33;16.52;;;;;;;24.92;61.03;100005.53;6181203;23;20080;-69
2021/07/11 00:55:23;;;;;;;19.42;16.80;;;;;;;24.92;61.94;100011.00;6181898;23;20009;-68
2021/07/11 00:57:49;;;;;;;18.25;16.38;;;;;;;24.90;61.76;100013.13;6181576;23;20012;-70
2021/07/11 01:00:16;;;;;;;18.15;16.40;;;;;;;24.86;62.04;100020.09;6181706;23;20053;-66
2021/07/11 01:02:54;;;;;;;18.90;16.92;;;;;;;24.96;61.59;100020.47;6181765;23;20017;-65
2021/07/11 01:05:23;;;;;;;18.10;16.30;;;;;;;24.87;61.83;100016.28;6181660;23;20012;-65
2021/07/11 01:08:02;;;;;;;18.05;16.23;;;;;;;24.86;61.66;100022.81;6155569;23;20033;-66
2021/07/11 01:10:39;;;;;;;18.40;16.45;;;;;;;24.84;61.37;100025.75;6182275;23;20001;-65
2021/07/11 01:13:08;;;;;;;19.20;17.40;;;;;;;24.89;61.10;100025.13;6154165;23;20398;-64
2021/07/11 01:15:37;;;;;;;18.17;16.40;;;;;;;24.61;61.48;99998.81;6181541;23;20016;-65
2021/07/11 01:18:05;;;;;;;18.40;16.50;;;;;;;24.75;61.91;100022.41;6181953;23;20364;-63
2021/07/11 01:20:42;;;;;;;18.13;15.30;;;;;;;24.74;61.83;100028.91;6181457;23;19997;-63
2021/07/11 01:23:10;;;;;;;17.85;16.15;;;;;;;24.75;61.77;100033.34;6181360;23;20020;-65
2021/07/11 01:25:36;;;;;;;17.80;16.13;;;;;;;24.76;61.12;100024.09;6182155;23;20008;-63
2021/07/11 01:28:04;;;;;;;17.73;15.98;;;;;;;24.78;61.10;100024.72;6181489;23;20450;-63
2021/07/11 01:30:31;;;;;;;20.90;15.88;;;;;;;24.78;61.62;100038.41;6181384;23;20320;-68
2021/07/11 01:32:58;;;;;;;18.67;16.83;;;;;;;24.74;61.20;100023.41;6181987;23;20001;-69
2021/07/11 01:35:24;;;;;;;19.02;17.08;;;;;;;24.62;60.92;100000.50;6182885;23;20120;-64
2021/07/11 01:37:52;;;;;;;17.83;16.08;;;;;;;24.84;60.60;100027.63;6182178;23;20036;-63
2021/07/11 01:40:19;;;;;;;17.73;15.73;;;;;;;24.78;61.17;100027.44;6155573;23;20005;-65
2021/07/11 01:42:46;;;;;;;17.08;15.30;;;;;;;24.76;61.47;100028.72;6179941;23;20486;-65
2021/07/11 01:45:13;;;;;;;17.77;16.13;;;;;;;24.73;61.35;100029.94;6181324;23;20041;-68
2021/07/11 01:47:40;;;;;;;17.58;15.75;;;;;;;24.74;61.07;100033.56;6156350;23;20507;-68
2021/07/11 01:50:07;;;;;;;17.65;15.90;;;;;;;24.70;61.57;100027.66;6156031;23;20193;-68
2021/07/11 01:52:33;;;;;;;18.15;15.63;;;;;;;24.64;61.04;100003.88;6156437;23;20028;-66
2021/07/11 01:54:59;;;;;;;17.88;16.13;;;;;;;24.68;61.58;100024.28;6183330;23;20084;-68
2021/07/11 01:57:24;;;;;;;16.42;14.93;;;;;;;24.66;60.64;100026.41;6182144;23;20036;-67
2021/07/11 01:59:50;;;;;;;20.08;14.40;;;;;;;24.70;59.56;100027.66;6182127;23;20059;-69
2021/07/11 02:02:15;;;;;;;16.58;14.85;;;;;;;24.75;59.40;100033.34;6182526;23;20468;-67
2021/07/11 02:04:41;;;;;;;16.10;14.50;;;;;;;24.78;58.96;100021.16;6183023;23;20009;-68
2021/07/11 02:07:06;;;;;;;18.40;15.13;;;;;;;24.82;59.39;100024.28;6182879;23;20392;-68
2021/07/11 02:09:33;;;;;;;16.75;15.05;;;;;;;24.81;58.51;100031.66;6181827;23;20108;-65
2021/07/11 02:12:01;;;;;;;15.32;13.75;;;;;;;24.71;58.92;100007.44;6182727;23;20005;-67
2021/07/11 02:14:30;;;;;;;18.27;14.52;;;;;;;24.92;58.75;100039.22;6156174;23;20009;-67
2021/07/11 02:17:09;;;;;;;16.35;14.65;;;;;;;25.01;58.81;100031.63;6182476;23;20445;-68
2021/07/11 02:19:37;;;;;;;15.95;14.40;;;;;;;24.83;59.25;100015.00;6182125;23;20013;-68
2021/07/11 02:22:04;;;;;;;15.52;13.93;;;;;;;24.98;58.86;100037.53;6156250;23;20380;-68
2021/07/11 02:24:35;;;;;;;19.23;14.80;;;;;;;25.08;58.84;100037.09;6184188;23;20287;-67
2021/07/11 02:27:01;;;;;;;16.80;15.20;;;;;;;25.19;58.67;100043.81;6158251;23;20014;-68
2021/07/11 02:29:33;;;;;;;16.23;14.52;;;;;;;25.21;58.33;100042.53;6184190;23;20063;-69
2021/07/11 02:32:03;;;;;;;16.17;14.57;;;;;;;25.22;58.58;100044.22;6183931;23;20450;-68
2021/07/11 02:34:31;;;;;;;16.95;15.25;;;;;;;25.21;58.55;100041.69;6184470;23;20012;-69
2021/07/11 02:37:01;;;;;;;15.93;14.52;;;;;;;25.25;58.12;100031.16;6133361;23;19997;-67
2021/07/11 02:39:27;;;;;;;17.33;15.68;;;;;;;25.29;58.36;100033.22;6183612;23;20005;-67
2021/07/11 02:42:05;;;;;;;16.60;15.00;;;;;;;25.42;57.32;100042.47;6183873;23;20009;-66
2021/07/11 02:44:31;;;;;;;16.55;14.85;;;;;;;25.40;57.08;100039.09;6157306;23;20019;-67
2021/07/11 02:47:09;;;;;;;17.63;14.68;;;;;;;25.50;57.40;100040.34;6184489;23;20005;-67
2021/07/11 02:49:36;;;;;;;16.00;14.45;;;;;;;25.65;56.36;100034.59;6184111;23;20005;-65
2021/07/11 02:52:05;;;;;;;16.38;14.57;;;;;;;25.88;55.89;100044.16;6184237;23;20040;-63
2021/07/11 02:54:44;;;;;;;15.48;13.57;;;;;;;26.08;54.80;100019.34;6184240;23;20020;-65
2021/07/11 02:57:11;;;;;;;15.70;14.07;;;;;;;26.33;53.71;100036.94;6184392;23;20005;-67
2021/07/11 02:59:37;;;;;;;15.82;14.23;;;;;;;26.44;52.54;100038.94;6183407;23;20001;-66
2021/07/11 03:02:06;;;;;;;15.55;13.82;;;;;;;26.72;52.40;100039.56;6132416;23;20002;-65
2021/07/11 03:04:38;;;;;;;15.70;14.05;;;;;;;26.91;51.36;100044.06;6184228;23;20005;-65
2021/07/11 03:07:05;;;;;;;15.77;14.30;;;;;;;27.10;51.25;100040.47;6183398;23;20327;-69
2021/07/11 03:09:30;;;;;;;16.63;13.43;;;;;;;27.27;50.79;100029.69;6183956;23;20005;-69
2021/07/11 03:11:56;;;;;;;16.35;13.82;;;;;;;27.52;49.18;100043.41;6183776;23;20015;-68
2021/07/11 03:14:24;;;;;;;15.23;13.60;;;;;;;27.84;48.28;100040.41;6184074;23;20048;-68
2021/07/11 03:16:54;;;;;;;14.68;13.27;;;;;;;28.30;47.80;100038.06;6183221;23;20126;-70
2021/07/11 03:19:22;;;;;;;15.40;13.77;;;;;;;28.70;46.66;100035.72;6183991;23;20029;-68
2021/07/11 03:21:50;;;;;;;14.57;13.18;;;;;;;29.20;45.25;100031.63;6184187;23;20013;-70
2021/07/11 03:24:23;;;;;;;15.43;13.05;;;;;;;29.77;44.08;100033.63;6157046;23;20005;-68
2021/07/11 03:26:52;;;;;;;14.07;12.68;;;;;;;30.31;42.36;100032.41;6183792;23;20001;-70
2021/07/11 03:29:33;;;;;;;13.85;12.43;;;;;;;30.98;41.57;100026.25;6184524;23;20016;-69
2021/07/11 03:32:01;;;;;;;13.90;11.25;;;;;;;31.24;38.73;100024.69;6184415;23;20332;-69
2021/07/11 03:34:29;;;;;;;14.73;11.48;;;;;;;31.53;38.28;100035.53;6183732;23;20005;-71
2021/07/11 03:36:59;;;;;;;12.82;10.73;;;;;;;32.02;36.91;100025.56;6157759;23;19997;-70
2021/07/11 03:39:26;;;;;;;11.13;10.02;;;;;;;32.53;34.73;100024.34;6184250;23;20079;-68
2021/07/11 03:41:55;;;;;;;11.02;9.02;;;;;;;33.00;33.51;100009.72;6183099;23;20851;-68
2021/07/11 03:44:27;;;;;;;11.38;10.38;;;;;;;33.60;33.65;100020.53;6183381;23;20099;-67
2021/07/11 03:46:53;;;;;;;11.65;10.55;;;;;;;34.03;32.66;100023.13;6183498;23;20424;-67
2021/07/11 03:49:20;;;;;;;13.48;11.73;;;;;;;34.45;31.76;100029.50;6184079;23;20001;-68
2021/07/11 03:51:47;;;;;;;12.00;10.75;;;;;;;34.99;30.68;100026.38;6156738;23;20364;-66
2021/07/11 03:54:14;;;;;;;11.65;10.20;;;;;;;35.48;29.67;100022.06;6183130;23;20024;-67
2021/07/11 03:56:43;;;;;;;11.63;10.18;;;;;;;35.83;28.01;99997.09;6183608;23;20042;-67
2021/07/11 03:59:10;;;;;;;9.50;8.60;;;;;;;36.46;26.12;100029.75;6183714;23;20308;-67
2021/07/11 04:01:38;;;;;;;10.75;9.07;;;;;;;36.90;25.70;100029.91;6184072;23;20005;-67
2021/07/11 04:04:08;;;;;;;9.68;8.38;;;;;;;37.26;25.39;100028.66;6182934;23;20331;-67
2021/07/11 04:06:35;;;;;;;11.68;9.68;;;;;;;37.45;25.50;100025.91;6183565;23;20005;-68
2021/07/11 04:09:03;;;;;;;7.15;6.47;;;;;;;37.34;23.60;100023.25;6157627;23;20005;-68
2021/07/11 04:11:29;;;;;;;10.82;7.07;;;;;;;37.54;22.89;100021.34;6183922;23;20025;-67
2021/07/11 04:13:54;;;;;;;8.77;7.32;;;;;;;38.01;22.27;100020.66;6156042;23;20013;-67
2021/07/11 04:16:27;;;;;;;9.60;7.85;;;;;;;38.72;22.03;100026.16;6157124;23;20040;-68
2021/07/11 04:18:56;;;;;;;10.00;8.30;;;;;;;39.01;21.27;100033.47;6183870;23;20020;-70
2021/07/11 04:21:26;;;;;;;8.13;7.40;;;;;;;39.62;20.93;100038.09;6183597;23;20823;-67
2021/07/11 04:23:53;;;;;;;8.25;7.40;;;;;;;40.11;19.34;100029.97;6182571;23;20017;-67
2021/07/11 04:26:19;;;;;;;8.15;7.43;;;;;;;40.85;18.69;100035.38;6183807;23;20008;-69
2021/07/11 04:28:47;;;;;;;14.88;8.18;;;;;;;41.10;19.07;100028.19;6155854;23;20012;-68
2021/07/11 04:31:12;;;;;;;9.73;8.80;;;;;;;41.50;18.30;100038.56;6183612;23;20096;-67
2021/07/11 04:33:38;;;;;;;8.90;7.95;;;;;;;41.68;18.20;100039.44;6182957;23;20393;-65
2021/07/11 04:36:07;;;;;;;12.15;9.07;;;;;;;42.45;17.84;100041.75;6183119;23;20059;-68
2021/07/11 04:38:33;;;;;;;10.07;8.80;;;;;;;42.85;16.99;100031.31;6182911;23;20426;-68
2021/07/11 04:41:00;;;;;;;9.95;9.05;;;;;;;43.32;16.69;100044.56;6183334;23;20036;-71
2021/07/11 04:43:25;;;;;;;11.05;9.95;;;;;;;43.82;16.79;100034.41;6182945;23;20001;-70
2021/07/11 04:45:51;;;;;;;10.68;9.68;;;;;;;44.26;16.45;100027.56;6182943;23;20527;-69
2021/07/11 04:48:16;;;;;;;10.07;8.52;;;;;;;44.54;15.96;100043.88;6182723;23;20311;-68
2021/07/11 04:50:45;;;;;;;9.02;8.32;;;;;;;45.05;15.41;100048.41;6183081;23;20087;-68
2021/07/11 04:53:12;;;;;;;9.80;8.90;;;;;;;45.46;14.87;100046.53;6183099;23;20471;-70
2021/07/11 04:55:38;;;;;;;9.45;8.70;;;;;;;45.80;14.69;100033.03;6182943;23;20008;-68
2021/07/11 04:58:03;;;;;;;9.60;8.70;;;;;;;46.26;13.68;100043.22;6182733;23;20072;-67
2021/07/11 05:00:29;;;;;;;8.32;7.53;;;;;;;46.47;13.05;100022.34;6183045;23;20000;-69
2021/07/11 05:02:54;;;;;;;7.88;7.20;;;;;;;46.86;12.89;100040.34;6182282;23;20058;-69
2021/07/11 05:05:20;;;;;;;8.45;7.15;;;;;;;47.16;12.51;100030.56;6182720;23;20346;-69
2021/07/11 05:07:46;;;;;;;7.63;7.00;;;;;;;47.48;11.61;100027.66;6182983;23;20067;-69
2021/07/11 05:10:12;;;;;;;8.90;6.18;;;;;;;47.96;11.08;100027.47;6182560;23;20419;-68
2021/07/11 05:12:38;;;;;;;6.93;5.72;;;;;;;48.28;10.71;100046.34;6182402;23;20052;-68
2021/07/11 05:15:06;;;;;;;6.47;5.53;;;;;;;48.58;10.49;100048.53;6182336;23;20017;-68
2021/07/11 05:17:31;;;;;;;6.60;5.88;;;;;;;48.97;10.46;100042.72;6182658;23;20016;-68
2021/07/11 05:19:57;;;;;;;6.35;5.75;;;;;;;49.23;10.20;100038.28;6182787;23;20056;-70
2021/07/11 05:22:22;;;;;;;6.70;5.55;;;;;;;49.59;9.56;100034.28;6182553;23;20044;-67
2021/07/11 05:24:48;;;;;;;5.72;5.22;;;;;;;50.01;9.05;100041.75;6183384;23;20328;-72
2021/07/11 05:27:13;;;;;;;5.10;4.70;;;;;;;50.40;8.73;100044.22;6182954;23;20370;-70
2021/07/11 05:29:39;;;;;;;5.30;4.80;;;;;;;50.65;8.05;100040.81;6182926;23;20004;-71
2021/07/11 05:32:05;;;;;;;5.07;4.60;;;;;;;50.77;8.25;100036.84;6156413;23;20352;-71
2021/07/11 05:34:30;;;;;;;5.53;4.78;;;;;;;50.84;7.82;100036.03;6156661;23;20312;-70
2021/07/11 05:36:56;;;;;;;4.63;4.20;;;;;;;51.34;7.13;100029.09;6183416;23;20049;-72
2021/07/11 05:39:21;;;;;;;4.72;4.43;;;;;;;51.50;7.15;100043.84;6182760;23;20351;-71
2021/07/11 05:41:47;;;;;;;5.78;4.63;;;;;;;51.67;7.44;100036.59;6182463;23;20434;-71
2021/07/11 05:44:12;;;;;;;5.13;4.63;;;;;;;52.10;6.83;100047.38;6156946;23;20001;-70
2021/07/11 05:46:38;;;;;;;4.88;4.47;;;;;;;52.20;6.61;100040.03;6183444;23;20359;-69
2021/07/11 05:49:04;;;;;;;6.47;4.10;;;;;;;52.13;6.41;100030.66;6182189;23;20320;-68
2021/07/11 05:51:30;;;;;;;5.30;4.80;;;;;;;52.49;6.21;100047.84;6182453;23;20001;-69
2021/07/11 05:53:55;;;;;;;4.88;4.57;;;;;;;52.95;6.08;100049.09;6182819;23;19997;-70
2021/07/11 05:56:21;;;;;;;7.55;4.60;;;;;;;53.33;5.66;100048.63;6182962;23;20012;-67
2021/07/11 05:58:46;;;;;;;6.00;4.60;;;;;;;53.41;6.19;100024.50;6156877;23;20296;-70
2021/07/11 06:01:12;;;;;;;5.70;4.22;;;;;;;53.65;6.06;100054.22;6184621;23;20012;-70
2021/07/11 06:03:37;;;;;;;4.30;3.97;;;;;;;53.97;5.72;100046.75;6158439;23;20361;-68
2021/07/11 06:06:03;;;;;;;4.55;4.25;;;;;;;54.48;5.60;100037.84;6185109;23;20396;-65
2021/07/11 06:08:28;;;;;;;5.03;4.25;;;;;;;54.77;5.24;100049.09;6184571;23;20423;-70
2021/07/11 06:10:55;;;;;;;5.20;4.90;;;;;;;54.74;5.19;100033.56;6184006;23;20423;-70
2021/07/11 06:13:22;;;;;;;4.90;4.47;;;;;;;54.71;5.19;100053.63;6149428;23;20013;-70
2021/07/11 06:15:48;;;;;;;4.57;4.20;;;;;;;54.88;4.68;100055.53;6154744;23;20009;-69
2021/07/11 06:18:14;;;;;;;5.60;5.20;;;;;;;55.22;5.33;100051.09;6154606;23;20002;-68
2021/07/11 06:20:39;;;;;;;4.90;4.50;;;;;;;55.47;4.70;100036.50;6154880;23;20034;-69
2021/07/11 06:23:05;;;;;;;5.43;5.03;;;;;;;55.83;4.24;100038.06;6128031;23;20031;-71
2021/07/11 06:25:31;;;;;;;6.10;5.60;;;;;;;56.15;4.38;100036.00;6154968;23;20020;-72
2021/07/11 06:27:56;;;;;;;5.80;5.30;;;;;;;56.32;4.18;100023.44;6153973;23;20060;-70
2021/07/11 06:30:22;;;;;;;5.90;5.40;;;;;;;56.41;4.28;100043.00;6154341;23;20020;-71
2021/07/11 06:32:49;;;;;;;6.75;6.05;;;;;;;56.53;4.27;100027.19;6155087;23;20009;-71
2021/07/11 06:35:17;;;;;;;6.72;6.15;;;;;;;56.90;4.22;100054.06;6154204;23;20375;-69
2021/07/11 06:37:45;;;;;;;6.30;5.90;;;;;;;56.67;4.51;100037.66;6129504;23;20013;-67
2021/07/11 06:40:13;;;;;;;5.50;5.20;;;;;;;55.73;4.73;100048.50;6154335;23;20008;-69
2021/07/11 06:42:39;;;;;;;6.13;5.72;;;;;;;55.32;4.77;100035.00;6153970;23;20013;-68
2021/07/11 06:45:06;;;;;;;5.93;5.43;;;;;;;56.15;4.57;100013.84;6153960;23;20005;-69
2021/07/11 06:47:32;;;;;;;6.40;5.90;;;;;;;57.11;4.27;100031.13;6128614;23;20005;-66
2021/07/11 06:49:58;;;;;;;6.70;6.28;;;;;;;57.77;3.71;100026.44;6154065;23;20012;-68
2021/07/11 06:52:24;;;;;;;6.90;6.20;;;;;;;58.13;3.90;100024.03;6127991;23;20005;-69
2021/07/11 06:54:51;;;;;;;10.20;6.80;;;;;;;56.45;4.33;100019.97;6128643;23;20321;-68
2021/07/11 06:57:17;;;;;;;6.03;5.63;;;;;;;54.60;6.04;100037.34;6153921;23;20009;-69
2021/07/11 06:59:43;;;;;;;6.10;5.53;;;;;;;52.37;7.21;100032.75;6153484;23;20324;-68
2021/07/11 07:02:08;;;;;;;6.72;6.10;;;;;;;51.32;7.43;100032.34;6154586;23;20005;-68
2021/07/11 07:04:34;;;;;;;6.57;6.07;;;;;;;49.99;8.22;100024.25;6154219;23;20009;-67
2021/07/11 07:07:03;;;;;;;5.07;4.78;;;;;;;48.07;9.86;100024.88;6154165;23;20343;-68
2021/07/11 07:09:29;;;;;;;4.97;4.68;;;;;;;46.43;11.13;100025.91;6128361;23;20400;-68
2021/07/11 07:11:55;;;;;;;5.15;4.78;;;;;;;46.86;11.07;100019.72;6155001;23;20021;-70
2021/07/11 07:14:21;;;;;;;5.30;4.80;;;;;;;48.46;9.38;100008.97;6175033;23;20063;-68
2021/07/11 07:16:46;;;;;;;4.60;4.30;;;;;;;50.05;8.70;99985.66;6182649;23;20028;-68
2021/07/11 07:19:12;;;;;;;4.72;4.32;;;;;;;52.25;7.15;100021.69;6184563;23;20009;-69
2021/07/11 07:21:37;;;;;;;7.18;4.72;;;;;;;54.04;6.01;100020.97;6186030;23;20005;-68
2021/07/11 07:24:04;;;;;;;5.35;4.85;;;;;;;54.85;5.56;100016.25;6183702;23;20025;-68
2021/07/11 07:26:29;;;;;;;5.55;5.15;;;;;;;55.16;4.88;100002.00;6182981;23;20013;-64
2021/07/11 07:28:55;;;;;;;5.53;5.10;;;;;;;55.48;4.90;100020.09;6183968;23;20084;-65
2021/07/11 07:31:20;;;;;;;5.35;4.93;;;;;;;56.01;5.44;100019.81;6184189;23;20032;-66
2021/07/11 07:33:46;;;;;;;6.38;5.78;;;;;;;56.51;4.36;100021.06;6183370;23;20087;-66
2021/07/11 07:36:11;;;;;;;5.95;5.55;;;;;;;56.48;4.63;100037.13;6183155;23;20080;-65
2021/07/11 07:38:37;;;;;;;6.13;5.55;;;;;;;55.90;4.50;100026.50;6183883;23;20005;-65
2021/07/11 07:41:03;;;;;;;6.60;5.95;;;;;;;55.26;4.83;100010.91;6184507;23;20269;-63
2021/07/11 07:43:29;;;;;;;8.32;6.35;;;;;;;55.66;4.91;100022.69;6183490;23;20412;-65
2021/07/11 07:45:54;;;;;;;7.07;6.60;;;;;;;56.07;4.57;100030.38;6153189;23;20059;-66
2021/07/11 07:48:20;;;;;;;6.13;5.75;;;;;;;56.57;4.13;100027.16;6184076;23;20092;-65
2021/07/11 07:50:45;;;;;;;7.55;7.05;;;;;;;56.75;4.14;99993.13;6183405;23;20009;-64
2021/07/11 07:53:11;;;;;;;7.43;6.82;;;;;;;57.25;4.44;100022.16;6183818;23;20008;-66
2021/07/11 07:55:36;;;;;;;6.83;6.40;;;;;;;57.39;4.33;100023.97;6157354;23;20005;-65
2021/07/11 07:58:03;;;;;;;7.70;7.20;;;;;;;57.64;4.14;100022.63;6184046;23;20231;-64
2021/07/11 08:00:28;;;;;;;8.15;7.45;;;;;;;57.68;3.67;100017.63;6184626;23;20419;-64
2021/07/11 08:02:54;;;;;;;8.70;8.13;;;;;;;57.62;4.24;100013.63;6184047;23;19997;-65
2021/07/11 08:05:20;;;;;;;8.15;7.63;;;;;;;57.13;4.26;100023.66;6183921;23;20001;-66
2021/07/11 08:07:46;;;;;;;7.80;7.22;;;;;;;56.70;4.09;100012.97;6183467;23;20005;-65
2021/07/11 08:10:15;;;;;;;8.70;8.10;;;;;;;56.13;4.67;100010.59;6183722;23;20001;-67
2021/07/11 08:12:41;;;;;;;7.75;7.25;;;;;;;54.99;5.08;99980.03;6183571;23;20043;-65
2021/07/11 08:15:09;;;;;;;6.82;6.40;;;;;;;54.58;5.67;100004.59;6183184;23;20398;-64
2021/07/11 08:17:35;;;;;;;7.00;6.40;;;;;;;53.83;6.36;99998.16;6183371;23;20012;-66
2021/07/11 08:20:04;;;;;;;6.40;6.00;;;;;;;53.40;6.33;100005.72;6183615;23;20028;-64
2021/07/11 08:22:29;;;;;;;6.72;6.22;;;;;;;53.10;6.24;99996.38;6183359;23;20005;-65
2021/07/11 08:24:55;;;;;;;7.15;6.53;;;;;;;52.48;7.05;99994.78;6183128;23;20015;-68
2021/07/11 08:27:21;;;;;;;6.20;5.60;;;;;;;51.03;7.75;99991.41;6157150;23;20431;-70
2021/07/11 08:29:51;;;;;;;6.25;5.75;;;;;;;48.77;9.27;99975.84;6182665;23;20437;-70
2021/07/11 08:32:19;;;;;;;6.22;5.80;;;;;;;46.64;10.90;99996.53;6183810;23;20040;-71
2021/07/11 08:34:45;;;;;;;6.95;6.03;;;;;;;44.45;12.87;99985.53;6183599;23;20055;-66
2021/07/11 08:37:10;;;;;;;7.20;6.40;;;;;;;42.99;14.11;99994.50;6183825;23;20415;-68
2021/07/11 08:39:36;;;;;;;6.57;6.00;;;;;;;41.96;15.39;99984.84;6183782;23;20060;-65
2021/07/11 08:42:02;;;;;;;6.30;5.80;;;;;;;40.74;16.12;99985.13;6183638;23;20324;-63
2021/07/11 08:44:27;;;;;;;6.97;6.32;;;;;;;39.68;17.41;99983.59;6183960;23;20433;-67
2021/07/11 08:46:54;;;;;;;7.15;6.47;;;;;;;38.89;18.61;99991.16;6183148;23;20005;-68
2021/07/11 08:49:21;;;;;;;7.30;6.60;;;;;;;38.24;19.09;99996.53;6157358;23;20000;-65
2021/07/11 08:51:47;;;;;;;7.88;7.07;;;;;;;37.44;20.50;99974.00;6156554;23;20323;-64
2021/07/11 08:54:15;;;;;;;6.88;6.20;;;;;;;37.03;21.28;99984.56;6182917;23;20017;-64
2021/07/11 08:56:41;;;;;;;7.28;6.63;;;;;;;36.78;20.88;99980.91;6157185;23;20051;-65
2021/07/11 08:59:06;;;;;;;8.57;6.88;;;;;;;36.61;21.61;99977.75;6156741;23;20023;-65
2021/07/11 09:01:32;;;;;;;7.13;6.43;;;;;;;36.67;21.24;99984.97;6183146;23;20005;-62
2021/07/11 09:04:03;;;;;;;8.30;6.80;;;;;;;36.63;21.32;99979.13;6156878;23;20001;-66
2021/07/11 09:06:52;;;;;;;8.75;6.70;;;;;;;36.88;20.66;99995.88;6183966;23;20415;-67
2021/07/11 09:09:29;;;;;;;7.70;6.80;;;;;;;36.60;21.30;99990.03;6132269;23;20032;-67
2021/07/11 09:12:09;;;;;;;7.35;6.57;;;;;;;36.40;21.68;99989.09;6156178;23;20009;-64
2021/07/11 09:14:40;;;;;;;6.93;6.35;;;;;;;36.30;21.75;99986.41;6182464;23;20017;-66
2021/07/11 09:17:06;;;;;;;7.03;6.32;;;;;;;36.26;22.38;99985.34;6183284;23;20020;-65
2021/07/11 09:19:35;;;;;;;6.82;6.20;;;;;;;36.18;22.47;99987.66;6183247;23;20319;-63
2021/07/11 09:22:12;;;;;;;7.13;6.45;;;;;;;36.20;22.61;99985.41;6183332;23;20009;-64
2021/07/11 09:24:55;;;;;;;6.72;6.18;;;;;;;36.40;21.83;99993.84;6183404;23;20001;-65
2021/07/11 09:27:24;;;;;;;7.68;7.05;;;;;;;36.23;21.86;99991.50;6183656;23;20013;-73
2021/07/11 09:29:51;;;;;;;7.47;6.78;;;;;;;36.02;22.34;99961.84;6157111;23;20004;-72
2021/07/11 09:32:30;;;;;;;7.18;6.47;;;;;;;36.46;22.05;99996.31;6156764;23;20012;-71
2021/07/11 09:35:13;;;;;;;9.38;8.48;;;;;;;36.56;21.89;99983.41;6183167;23;20008;-67
2021/07/11 09:37:42;;;;;;;7.55;6.95;;;;;;;36.58;22.16;99982.00;6182458;23;20343;-70
2021/07/11 09:40:09;;;;;;;8.18;7.25;;;;;;;36.67;21.76;99981.34;6156139;23;20100;-64
2021/07/11 09:42:37;;;;;;;8.10;7.25;;;;;;;36.61;21.84;99980.56;6182812;23;20008;-64
2021/07/11 09:45:14;;;;;;;7.13;6.53;;;;;;;36.54;22.18;99991.22;6183320;23;20159;-63
2021/07/11 09:47:39;;;;;;;7.80;6.78;;;;;;;36.13;22.31;99987.66;6183148;23;20084;-62
2021/07/11 09:50:13;;;;;;;7.65;6.82;;;;;;;35.84;22.74;99985.63;6182944;23;20080;-62
2021/07/11 09:52:41;;;;;;;7.68;7.00;;;;;;;35.51;23.00;99971.41;6180247;23;20709;-62
2021/07/11 09:55:10;;;;;;;8.57;7.68;;;;;;;35.58;22.60;99987.78;6180106;23;20431;-62
2021/07/11 09:57:38;;;;;;;8.02;6.63;;;;;;;35.30;23.04;99985.41;6182771;23;20355;-62
2021/07/11 10:00:05;;;;;;;7.43;6.80;;;;;;;35.11;23.57;99981.59;6183073;23;20009;-63
2021/07/11 10:02:31;;;;;;;7.15;6.55;;;;;;;35.04;23.88;99968.81;6183428;23;20006;-62
2021/07/11 10:04:56;;;;;;;7.72;6.93;;;;;;;35.10;23.59;99968.78;6183213;23;20008;-63
2021/07/11 10:07:22;;;;;;;8.40;7.00;;;;;;;34.86;23.97;99933.25;6156731;23;20009;-63
2021/07/11 10:09:47;;;;;;;8.10;6.25;;;;;;;35.03;24.30;99971.88;6182961;23;20469;-62
2021/07/11 10:12:13;;;;;;;6.65;6.13;;;;;;;35.05;24.31;99980.75;6182912;23;20040;-64
2021/07/11 10:14:39;;;;;;;6.97;6.32;;;;;;;35.13;23.65;99966.28;6131564;23;20366;-64
2021/07/11 10:17:04;;;;;;;6.47;5.88;;;;;;;35.40;23.16;99976.16;6153399;23;20032;-62
2021/07/11 10:19:32;;;;;;;6.50;5.82;;;;;;;35.68;22.68;99976.56;6153394;23;20324;-63
2021/07/11 10:22:09;;;;;;;7.28;6.68;;;;;;;35.74;22.58;99966.22;6153518;23;20001;-63
2021/07/11 10:24:40;;;;;;;6.22;5.72;;;;;;;35.63;22.83;99945.97;6153443;23;19997;-62
2021/07/11 10:27:21;;;;;;;7.55;6.68;;;;;;;35.33;23.04;99940.28;6153009;23;20009;-62
2021/07/11 10:29:49;;;;;;;6.55;5.95;;;;;;;35.13;23.88;99963.50;6152971;23;20064;-63
2021/07/11 10:32:28;;;;;;;7.70;6.20;;;;;;;35.03;23.21;99974.66;6126751;23;20002;-62
2021/07/11 10:34:54;;;;;;;6.90;6.30;;;;;;;34.68;24.23;99968.91;6153350;23;20009;-63
2021/07/11 10:37:25;;;;;;;6.60;6.18;;;;;;;34.62;24.34;99984.78;6153040;23;20012;-61
2021/07/11 10:40:08;;;;;;;6.63;6.03;;;;;;;34.72;23.56;99967.22;6152826;23;20020;-61
2021/07/11 10:42:34;;;;;;;6.55;5.95;;;;;;;34.79;24.34;99961.34;6125077;23;20423;-63
2021/07/11 10:45:09;;;;;;;6.78;6.07;;;;;;;35.08;23.69;99962.69;6127556;23;20001;-63
2021/07/11 10:47:36;;;;;;;7.82;6.20;;;;;;;35.05;23.86;99964.06;6154463;23;20002;-63
2021/07/11 10:50:07;;;;;;;6.65;5.90;;;;;;;34.98;23.17;99958.81;6126630;23;20013;-63
2021/07/11 10:52:38;;;;;;;7.18;5.55;;;;;;;35.10;22.81;99960.44;6154244;23;20563;-64
2021/07/11 10:55:09;;;;;;;9.82;6.05;;;;;;;35.05;23.48;99959.34;6154329;23;20001;-61
2021/07/11 10:57:36;;;;;;;6.53;5.80;;;;;;;35.02;22.20;99965.50;6154450;23;20001;-61
2021/07/11 11:00:19;;;;;;;8.77;5.80;;;;;;;34.89;22.72;99963.28;6128566;23;20005;-63
2021/07/11 11:02:49;;;;;;;6.35;5.28;;;;;;;34.82;23.60;99966.34;6154743;23;20002;-63
2021/07/11 11:05:24;;;;;;;6.32;5.72;;;;;;;34.94;23.65;99960.47;6154354;23;20018;-62
2021/07/11 11:07:55;;;;;;;5.90;5.40;;;;;;;34.98;23.67;99961.59;6154622;23;20032;-64
2021/07/11 11:10:31;;;;;;;6.25;5.63;;;;;;;35.14;23.53;99953.19;6128781;23;20032;-63
2021/07/11 11:13:10;;;;;;;6.18;5.57;;;;;;;35.16;23.76;99948.16;6158150;23;20013;-65
2021/07/11 11:15:48;;;;;;;6.75;6.15;;;;;;;35.12;23.52;99936.78;6158119;23;20016;-62
2021/07/11 11:18:30;;;;;;;6.78;6.28;;;;;;;35.22;23.54;99938.69;6156966;23;20699;-65
2021/07/11 11:20:57;;;;;;;6.55;5.95;;;;;;;35.14;24.18;99940.13;6184565;23;20008;-64
2021/07/11 11:23:24;;;;;;;6.43;5.78;;;;;;;35.03;23.83;99944.91;6183807;23;20015;-67
2021/07/11 11:25:50;;;;;;;6.32;5.80;;;;;;;34.81;23.67;99947.19;6183714;23;20028;-62
2021/07/11 11:28:38;;;;;;;6.03;5.53;;;;;;;34.72;23.77;99964.44;6183782;23;20005;-70